sensor_id;sensor_type;location;lat;lon;timestamp;temperature;humidity
40758;DHT22;26462;47.384;19.218;2023-03-01T00:01:23;4.30;92.20
40758;DHT22;26462;47.384;19.218;2023-03-01T00:03:51;4.30;92.20
40758;DHT22;26462;47.384;19.218;2023-03-01T00:06:20;4.30;92.10
40758;DHT22;26462;47.384;19.218;2023-03-01T00:08:47;4.30;92.20
40758;DHT22;26462;47.384;19.218;2023-03-01T00:13:48;4.30;92.20
40758;DHT22;26462;47.384;19.218;2023-03-01T00:16:37;4.30;92.10
40758;DHT22;26462;47.384;19.218;2023-03-01T00:19:12;4.30;92.10
40758;DHT22;26462;47.384;19.218;2023-03-01T00:21:39;4.30;92.10
40758;DHT22;26462;47.384;19.218;2023-03-01T00:24:06;4.30;92.00
40758;DHT22;26462;47.384;19.218;2023-03-01T00:26:34;4.30;92.10
40758;DHT22;26462;47.384;19.218;2023-03-01T00:29:01;4.30;92.00
40758;DHT22;26462;47.384;19.218;2023-03-01T00:31:30;4.30;92.00
40758;DHT22;26462;47.384;19.218;2023-03-01T00:34:03;4.30;92.00
40758;DHT22;26462;47.384;19.218;2023-03-01T00:36:33;4.30;92.10
40758;DHT22;26462;47.384;19.218;2023-03-01T00:39:01;4.30;92.10
40758;DHT22;26462;47.384;19.218;2023-03-01T00:41:28;4.30;92.20
40758;DHT22;26462;47.384;19.218;2023-03-01T00:43:56;4.30;92.30
40758;DHT22;26462;47.384;19.218;2023-03-01T00:46:25;4.30;92.20
40758;DHT22;26462;47.384;19.218;2023-03-01T00:48:53;4.30;92.20
40758;DHT22;26462;47.384;19.218;2023-03-01T00:51:23;4.30;92.20
40758;DHT22;26462;47.384;19.218;2023-03-01T00:53:53;4.30;92.20
40758;DHT22;26462;47.384;19.218;2023-03-01T00:56:21;4.30;92.20
40758;DHT22;26462;47.384;19.218;2023-03-01T00:58:48;4.30;92.30
40758;DHT22;26462;47.384;19.218;2023-03-01T01:01:21;4.30;92.30
40758;DHT22;26462;47.384;19.218;2023-03-01T01:03:55;4.30;92.30
40758;DHT22;26462;47.384;19.218;2023-03-01T01:06:34;4.30;92.30
40758;DHT22;26462;47.384;19.218;2023-03-01T01:09:04;4.30;92.30
40758;DHT22;26462;47.384;19.218;2023-03-01T01:11:32;4.30;92.40
40758;DHT22;26462;47.384;19.218;2023-03-01T01:14:00;4.30;92.40
40758;DHT22;26462;47.384;19.218;2023-03-01T01:16:29;4.30;92.50
40758;DHT22;26462;47.384;19.218;2023-03-01T01:18:57;4.30;92.40
40758;DHT22;26462;47.384;19.218;2023-03-01T01:21:25;4.30;92.30
40758;DHT22;26462;47.384;19.218;2023-03-01T01:23:53;4.30;92.40
40758;DHT22;26462;47.384;19.218;2023-03-01T01:26:22;4.20;92.40
40758;DHT22;26462;47.384;19.218;2023-03-01T01:28:50;4.30;92.50
40758;DHT22;26462;47.384;19.218;2023-03-01T01:31:18;4.30;92.60
40758;DHT22;26462;47.384;19.218;2023-03-01T01:33:46;4.20;92.60
40758;DHT22;26462;47.384;19.218;2023-03-01T01:36:13;4.20;92.60
40758;DHT22;26462;47.384;19.218;2023-03-01T01:38:40;4.20;92.60
40758;DHT22;26462;47.384;19.218;2023-03-01T01:41:09;4.20;92.60
40758;DHT22;26462;47.384;19.218;2023-03-01T01:43:45;4.30;92.70
40758;DHT22;26462;47.384;19.218;2023-03-01T01:48:49;4.20;92.60
40758;DHT22;26462;47.384;19.218;2023-03-01T01:51:24;4.20;92.60
40758;DHT22;26462;47.384;19.218;2023-03-01T01:53:57;4.20;92.50
40758;DHT22;26462;47.384;19.218;2023-03-01T01:56:25;4.20;92.50
40758;DHT22;26462;47.384;19.218;2023-03-01T01:58:54;4.20;92.70
40758;DHT22;26462;47.384;19.218;2023-03-01T02:01:22;4.20;92.90
40758;DHT22;26462;47.384;19.218;2023-03-01T02:03:50;4.20;93.00
40758;DHT22;26462;47.384;19.218;2023-03-01T02:06:37;4.20;93.20
40758;DHT22;26462;47.384;19.218;2023-03-01T02:09:08;4.20;93.20
40758;DHT22;26462;47.384;19.218;2023-03-01T02:11:37;4.20;93.30
40758;DHT22;26462;47.384;19.218;2023-03-01T02:14:05;4.20;93.20
40758;DHT22;26462;47.384;19.218;2023-03-01T02:16:33;4.20;93.30
40758;DHT22;26462;47.384;19.218;2023-03-01T02:19:03;4.20;93.30
40758;DHT22;26462;47.384;19.218;2023-03-01T02:27:01;4.20;93.70
40758;DHT22;26462;47.384;19.218;2023-03-01T02:29:29;4.20;93.70
40758;DHT22;26462;47.384;19.218;2023-03-01T02:31:58;4.20;93.70
40758;DHT22;26462;47.384;19.218;2023-03-01T02:34:27;4.20;93.80
40758;DHT22;26462;47.384;19.218;2023-03-01T02:37:07;4.20;93.90
40758;DHT22;26462;47.384;19.218;2023-03-01T02:39:57;4.20;94.10
40758;DHT22;26462;47.384;19.218;2023-03-01T02:42:39;4.20;93.80
40758;DHT22;26462;47.384;19.218;2023-03-01T02:45:07;4.20;93.90
40758;DHT22;26462;47.384;19.218;2023-03-01T02:47:34;4.20;93.70
40758;DHT22;26462;47.384;19.218;2023-03-01T02:50:02;4.20;93.60
40758;DHT22;26462;47.384;19.218;2023-03-01T02:52:47;4.20;93.70
40758;DHT22;26462;47.384;19.218;2023-03-01T02:55:19;4.20;93.70
40758;DHT22;26462;47.384;19.218;2023-03-01T02:57:47;4.20;93.70
40758;DHT22;26462;47.384;19.218;2023-03-01T03:00:28;4.20;93.80
40758;DHT22;26462;47.384;19.218;2023-03-01T03:02:57;4.20;93.90
40758;DHT22;26462;47.384;19.218;2023-03-01T03:05:28;4.20;93.80
40758;DHT22;26462;47.384;19.218;2023-03-01T03:07:58;4.20;93.80
40758;DHT22;26462;47.384;19.218;2023-03-01T03:10:29;4.20;93.80
40758;DHT22;26462;47.384;19.218;2023-03-01T03:13:04;4.20;93.70
40758;DHT22;26462;47.384;19.218;2023-03-01T03:15:31;4.20;93.80
40758;DHT22;26462;47.384;19.218;2023-03-01T03:18:05;4.20;93.90
40758;DHT22;26462;47.384;19.218;2023-03-01T03:20:33;4.20;93.90
40758;DHT22;26462;47.384;19.218;2023-03-01T03:23:00;4.20;93.90
40758;DHT22;26462;47.384;19.218;2023-03-01T03:25:29;4.10;93.70
40758;DHT22;26462;47.384;19.218;2023-03-01T03:27:57;4.10;93.70
40758;DHT22;26462;47.384;19.218;2023-03-01T03:30:30;4.20;93.80
40758;DHT22;26462;47.384;19.218;2023-03-01T03:32:59;4.20;93.80
40758;DHT22;26462;47.384;19.218;2023-03-01T03:35:30;4.10;93.70
40758;DHT22;26462;47.384;19.218;2023-03-01T03:38:00;4.10;93.80
40758;DHT22;26462;47.384;19.218;2023-03-01T03:40:40;4.10;93.80
40758;DHT22;26462;47.384;19.218;2023-03-01T03:43:09;4.10;94.00
40758;DHT22;26462;47.384;19.218;2023-03-01T03:45:37;4.10;94.00
40758;DHT22;26462;47.384;19.218;2023-03-01T03:48:07;4.10;94.10
40758;DHT22;26462;47.384;19.218;2023-03-01T03:50:35;4.10;94.20
40758;DHT22;26462;47.384;19.218;2023-03-01T03:53:05;4.10;94.10
40758;DHT22;26462;47.384;19.218;2023-03-01T03:55:32;4.10;94.00
40758;DHT22;26462;47.384;19.218;2023-03-01T03:58:02;4.10;94.10
40758;DHT22;26462;47.384;19.218;2023-03-01T04:00:35;4.10;94.10
40758;DHT22;26462;47.384;19.218;2023-03-01T04:03:03;4.10;94.20
40758;DHT22;26462;47.384;19.218;2023-03-01T04:05:31;4.10;94.20
40758;DHT22;26462;47.384;19.218;2023-03-01T04:07:58;4.10;94.30
40758;DHT22;26462;47.384;19.218;2023-03-01T04:10:31;4.10;94.40
40758;DHT22;26462;47.384;19.218;2023-03-01T04:12:58;4.10;94.40
40758;DHT22;26462;47.384;19.218;2023-03-01T04:15:26;4.10;94.30
40758;DHT22;26462;47.384;19.218;2023-03-01T04:17:54;4.10;94.40
40758;DHT22;26462;47.384;19.218;2023-03-01T04:20:24;4.10;94.30
40758;DHT22;26462;47.384;19.218;2023-03-01T04:23:02;4.10;94.30
40758;DHT22;26462;47.384;19.218;2023-03-01T04:25:48;4.10;94.40
40758;DHT22;26462;47.384;19.218;2023-03-01T04:31:04;4.10;94.50
40758;DHT22;26462;47.384;19.218;2023-03-01T04:33:50;4.10;94.50
40758;DHT22;26462;47.384;19.218;2023-03-01T04:36:20;4.10;94.60
40758;DHT22;26462;47.384;19.218;2023-03-01T04:38:48;4.10;94.60
40758;DHT22;26462;47.384;19.218;2023-03-01T04:41:18;4.10;94.60
40758;DHT22;26462;47.384;19.218;2023-03-01T04:43:46;4.10;94.70
40758;DHT22;26462;47.384;19.218;2023-03-01T04:46:16;4.10;94.70
40758;DHT22;26462;47.384;19.218;2023-03-01T04:48:44;4.10;94.80
40758;DHT22;26462;47.384;19.218;2023-03-01T04:51:12;4.10;94.90
40758;DHT22;26462;47.384;19.218;2023-03-01T04:53:43;4.10;94.90
40758;DHT22;26462;47.384;19.218;2023-03-01T04:56:12;4.10;94.90
40758;DHT22;26462;47.384;19.218;2023-03-01T04:58:40;4.10;94.90
40758;DHT22;26462;47.384;19.218;2023-03-01T05:01:19;4.10;95.00
40758;DHT22;26462;47.384;19.218;2023-03-01T05:03:49;4.10;95.10
40758;DHT22;26462;47.384;19.218;2023-03-01T05:06:18;4.10;95.00
40758;DHT22;26462;47.384;19.218;2023-03-01T05:08:46;4.10;95.00
40758;DHT22;26462;47.384;19.218;2023-03-01T05:11:13;4.10;94.90
40758;DHT22;26462;47.384;19.218;2023-03-01T05:13:40;4.10;95.00
40758;DHT22;26462;47.384;19.218;2023-03-01T05:16:08;4.10;95.00
40758;DHT22;26462;47.384;19.218;2023-03-01T05:18:39;4.10;95.00
40758;DHT22;26462;47.384;19.218;2023-03-01T05:21:08;4.10;95.00
40758;DHT22;26462;47.384;19.218;2023-03-01T05:23:36;4.10;95.10
40758;DHT22;26462;47.384;19.218;2023-03-01T05:26:05;4.10;95.00
40758;DHT22;26462;47.384;19.218;2023-03-01T05:28:37;4.10;95.00
40758;DHT22;26462;47.384;19.218;2023-03-01T05:31:04;4.10;95.00
40758;DHT22;26462;47.384;19.218;2023-03-01T05:33:38;4.10;94.80
40758;DHT22;26462;47.384;19.218;2023-03-01T05:36:08;4.10;94.90
40758;DHT22;26462;47.384;19.218;2023-03-01T05:38:36;4.10;94.80
40758;DHT22;26462;47.384;19.218;2023-03-01T05:41:04;4.10;94.70
40758;DHT22;26462;47.384;19.218;2023-03-01T05:43:31;4.10;94.60
40758;DHT22;26462;47.384;19.218;2023-03-01T05:46:01;4.10;94.50
40758;DHT22;26462;47.384;19.218;2023-03-01T05:48:29;4.10;94.50
40758;DHT22;26462;47.384;19.218;2023-03-01T05:50:59;4.10;94.30
40758;DHT22;26462;47.384;19.218;2023-03-01T05:53:27;4.10;94.30
40758;DHT22;26462;47.384;19.218;2023-03-01T05:55:54;4.10;94.20
40758;DHT22;26462;47.384;19.218;2023-03-01T05:58:21;4.10;94.00
40758;DHT22;26462;47.384;19.218;2023-03-01T06:00:49;4.10;93.70
40758;DHT22;26462;47.384;19.218;2023-03-01T06:03:19;4.10;93.50
40758;DHT22;26462;47.384;19.218;2023-03-01T06:05:46;4.10;93.40
40758;DHT22;26462;47.384;19.218;2023-03-01T06:08:13;4.10;93.10
40758;DHT22;26462;47.384;19.218;2023-03-01T06:10:41;4.10;92.70
40758;DHT22;26462;47.384;19.218;2023-03-01T06:13:08;4.10;92.50
40758;DHT22;26462;47.384;19.218;2023-03-01T06:15:35;4.10;92.50
40758;DHT22;26462;47.384;19.218;2023-03-01T06:18:03;4.10;92.20
40758;DHT22;26462;47.384;19.218;2023-03-01T06:20:30;4.20;92.00
40758;DHT22;26462;47.384;19.218;2023-03-01T06:22:57;4.20;92.00
40758;DHT22;26462;47.384;19.218;2023-03-01T06:25:26;4.20;91.80
40758;DHT22;26462;47.384;19.218;2023-03-01T06:27:53;4.20;91.70
40758;DHT22;26462;47.384;19.218;2023-03-01T06:30:22;4.20;91.60
40758;DHT22;26462;47.384;19.218;2023-03-01T06:32:49;4.30;91.70
40758;DHT22;26462;47.384;19.218;2023-03-01T06:35:18;4.30;91.80
40758;DHT22;26462;47.384;19.218;2023-03-01T06:37:47;4.30;91.70
40758;DHT22;26462;47.384;19.218;2023-03-01T06:40:15;4.30;91.60
40758;DHT22;26462;47.384;19.218;2023-03-01T06:42:48;4.40;91.80
40758;DHT22;26462;47.384;19.218;2023-03-01T06:45:19;4.40;91.80
40758;DHT22;26462;47.384;19.218;2023-03-01T06:47:47;4.40;91.80
40758;DHT22;26462;47.384;19.218;2023-03-01T06:50:14;4.40;91.70
40758;DHT22;26462;47.384;19.218;2023-03-01T06:52:42;4.40;91.90
40758;DHT22;26462;47.384;19.218;2023-03-01T06:55:13;4.40;91.90
40758;DHT22;26462;47.384;19.218;2023-03-01T06:57:40;4.50;92.10
40758;DHT22;26462;47.384;19.218;2023-03-01T07:00:08;4.50;92.20
40758;DHT22;26462;47.384;19.218;2023-03-01T07:02:35;4.50;92.00
40758;DHT22;26462;47.384;19.218;2023-03-01T07:05:02;4.50;92.00
40758;DHT22;26462;47.384;19.218;2023-03-01T07:07:30;4.50;91.90
40758;DHT22;26462;47.384;19.218;2023-03-01T07:09:57;4.60;91.70
40758;DHT22;26462;47.384;19.218;2023-03-01T07:12:25;4.70;91.70
40758;DHT22;26462;47.384;19.218;2023-03-01T07:14:52;4.70;91.60
40758;DHT22;26462;47.384;19.218;2023-03-01T07:17:19;4.70;91.50
40758;DHT22;26462;47.384;19.218;2023-03-01T07:19:46;4.80;91.30
40758;DHT22;26462;47.384;19.218;2023-03-01T07:22:13;4.80;91.20
40758;DHT22;26462;47.384;19.218;2023-03-01T07:24:42;4.90;91.00
40758;DHT22;26462;47.384;19.218;2023-03-01T07:27:10;5.00;91.00
40758;DHT22;26462;47.384;19.218;2023-03-01T07:29:37;5.10;91.00
40758;DHT22;26462;47.384;19.218;2023-03-01T07:32:05;5.10;90.90
40758;DHT22;26462;47.384;19.218;2023-03-01T07:34:33;5.20;90.30
40758;DHT22;26462;47.384;19.218;2023-03-01T07:37:00;5.20;90.50
40758;DHT22;26462;47.384;19.218;2023-03-01T07:39:27;5.30;90.40
40758;DHT22;26462;47.384;19.218;2023-03-01T07:41:54;5.30;90.30
40758;DHT22;26462;47.384;19.218;2023-03-01T07:44:22;5.40;90.20
40758;DHT22;26462;47.384;19.218;2023-03-01T07:46:49;5.40;89.20
40758;DHT22;26462;47.384;19.218;2023-03-01T07:49:18;5.50;89.10
40758;DHT22;26462;47.384;19.218;2023-03-01T07:51:45;5.60;88.90
40758;DHT22;26462;47.384;19.218;2023-03-01T07:54:19;5.70;88.40
40758;DHT22;26462;47.384;19.218;2023-03-01T07:56:52;5.70;87.60
40758;DHT22;26462;47.384;19.218;2023-03-01T07:59:22;5.70;87.20
40758;DHT22;26462;47.384;19.218;2023-03-01T08:11:23;5.90;86.00
40758;DHT22;26462;47.384;19.218;2023-03-01T08:23:58;6.10;85.30
40758;DHT22;26462;47.384;19.218;2023-03-01T10:57:31;9.90;72.70
40758;DHT22;26462;47.384;19.218;2023-03-01T11:10:15;9.60;74.10
40758;DHT22;26462;47.384;19.218;2023-03-01T11:13:19;9.50;73.30
40758;DHT22;26462;47.384;19.218;2023-03-01T17:53:47;6.90;89.20
40758;DHT22;26462;47.384;19.218;2023-03-01T17:56:18;6.80;89.40
40758;DHT22;26462;47.384;19.218;2023-03-01T17:58:46;6.80;89.60
40758;DHT22;26462;47.384;19.218;2023-03-01T18:01:21;6.80;89.70
40758;DHT22;26462;47.384;19.218;2023-03-01T18:03:53;6.70;89.70
40758;DHT22;26462;47.384;19.218;2023-03-01T18:06:26;6.70;89.80
40758;DHT22;26462;47.384;19.218;2023-03-01T18:08:55;6.70;89.90
40758;DHT22;26462;47.384;19.218;2023-03-01T18:11:24;6.60;90.20
40758;DHT22;26462;47.384;19.218;2023-03-01T18:13:53;6.60;90.00
40758;DHT22;26462;47.384;19.218;2023-03-01T18:16:21;6.50;90.00
40758;DHT22;26462;47.384;19.218;2023-03-01T18:18:54;6.50;90.10
40758;DHT22;26462;47.384;19.218;2023-03-01T18:21:22;6.50;90.30
40758;DHT22;26462;47.384;19.218;2023-03-01T18:23:55;6.40;90.30
40758;DHT22;26462;47.384;19.218;2023-03-01T18:26:23;6.40;90.40
40758;DHT22;26462;47.384;19.218;2023-03-01T18:28:52;6.30;90.40
40758;DHT22;26462;47.384;19.218;2023-03-01T18:31:29;6.30;90.40
40758;DHT22;26462;47.384;19.218;2023-03-01T18:33:59;6.30;90.50
40758;DHT22;26462;47.384;19.218;2023-03-01T18:36:34;6.20;90.50
40758;DHT22;26462;47.384;19.218;2023-03-01T18:39:07;6.20;90.60
40758;DHT22;26462;47.384;19.218;2023-03-01T18:41:41;6.20;90.60
40758;DHT22;26462;47.384;19.218;2023-03-01T18:44:09;6.20;90.70
40758;DHT22;26462;47.384;19.218;2023-03-01T18:46:39;6.10;90.70
40758;DHT22;26462;47.384;19.218;2023-03-01T18:49:07;6.10;90.70
40758;DHT22;26462;47.384;19.218;2023-03-01T18:51:38;6.10;90.70
40758;DHT22;26462;47.384;19.218;2023-03-01T18:54:09;6.10;90.80
40758;DHT22;26462;47.384;19.218;2023-03-01T18:56:40;6.10;90.80
40758;DHT22;26462;47.384;19.218;2023-03-01T18:59:08;6.00;90.90
40758;DHT22;26462;47.384;19.218;2023-03-01T19:01:39;6.00;90.90
40758;DHT22;26462;47.384;19.218;2023-03-01T19:04:10;6.00;91.00
40758;DHT22;26462;47.384;19.218;2023-03-01T19:06:40;6.00;91.00
40758;DHT22;26462;47.384;19.218;2023-03-01T19:09:10;5.90;91.00
40758;DHT22;26462;47.384;19.218;2023-03-01T19:11:39;5.90;91.10
40758;DHT22;26462;47.384;19.218;2023-03-01T19:14:09;5.90;91.10
40758;DHT22;26462;47.384;19.218;2023-03-01T19:16:37;5.90;91.10
40758;DHT22;26462;47.384;19.218;2023-03-01T19:19:05;5.90;91.20
40758;DHT22;26462;47.384;19.218;2023-03-01T19:21:37;5.90;91.20
40758;DHT22;26462;47.384;19.218;2023-03-01T19:24:05;5.80;91.10
40758;DHT22;26462;47.384;19.218;2023-03-01T19:26:34;5.80;91.10
40758;DHT22;26462;47.384;19.218;2023-03-01T19:29:02;5.80;91.30
40758;DHT22;26462;47.384;19.218;2023-03-01T19:31:31;5.70;91.40
40758;DHT22;26462;47.384;19.218;2023-03-01T19:33:59;5.70;91.60
40758;DHT22;26462;47.384;19.218;2023-03-01T19:36:41;5.70;91.70
40758;DHT22;26462;47.384;19.218;2023-03-01T19:39:12;5.60;91.80
40758;DHT22;26462;47.384;19.218;2023-03-01T19:41:41;5.60;91.80
40758;DHT22;26462;47.384;19.218;2023-03-01T19:44:09;5.50;92.00
40758;DHT22;26462;47.384;19.218;2023-03-01T19:46:37;5.50;92.20
40758;DHT22;26462;47.384;19.218;2023-03-01T19:49:06;5.40;92.40
40758;DHT22;26462;47.384;19.218;2023-03-01T19:51:35;5.40;92.50
40758;DHT22;26462;47.384;19.218;2023-03-01T19:54:26;5.30;92.60
40758;DHT22;26462;47.384;19.218;2023-03-01T19:57:05;5.30;92.70
40758;DHT22;26462;47.384;19.218;2023-03-01T19:59:42;5.30;92.80
40758;DHT22;26462;47.384;19.218;2023-03-01T20:02:13;5.20;92.90
40758;DHT22;26462;47.384;19.218;2023-03-01T20:04:42;5.20;93.00
40758;DHT22;26462;47.384;19.218;2023-03-01T20:07:12;5.20;93.10
40758;DHT22;26462;47.384;19.218;2023-03-01T20:09:42;5.10;93.10
40758;DHT22;26462;47.384;19.218;2023-03-01T20:12:11;5.10;93.20
40758;DHT22;26462;47.384;19.218;2023-03-01T20:14:41;5.10;93.50
40758;DHT22;26462;47.384;19.218;2023-03-01T20:17:10;5.00;93.60
40758;DHT22;26462;47.384;19.218;2023-03-01T20:19:41;5.00;93.80
40758;DHT22;26462;47.384;19.218;2023-03-01T20:22:11;5.00;93.60
40758;DHT22;26462;47.384;19.218;2023-03-01T20:24:42;4.90;93.70
40758;DHT22;26462;47.384;19.218;2023-03-01T20:27:10;4.90;93.80
40758;DHT22;26462;47.384;19.218;2023-03-01T20:29:40;4.80;93.90
40758;DHT22;26462;47.384;19.218;2023-03-01T20:32:10;4.80;94.10
40758;DHT22;26462;47.384;19.218;2023-03-01T20:34:41;4.70;94.30
40758;DHT22;26462;47.384;19.218;2023-03-01T20:37:10;4.70;94.50
40758;DHT22;26462;47.384;19.218;2023-03-01T20:39:40;4.70;94.50
40758;DHT22;26462;47.384;19.218;2023-03-01T20:42:09;4.60;94.60
40758;DHT22;26462;47.384;19.218;2023-03-01T20:44:40;4.60;94.70
40758;DHT22;26462;47.384;19.218;2023-03-01T20:47:12;4.50;94.80
40758;DHT22;26462;47.384;19.218;2023-03-01T20:49:42;4.50;95.00
40758;DHT22;26462;47.384;19.218;2023-03-01T20:52:10;4.50;95.00
40758;DHT22;26462;47.384;19.218;2023-03-01T20:54:38;4.40;94.90
40758;DHT22;26462;47.384;19.218;2023-03-01T20:57:08;4.40;94.90
40758;DHT22;26462;47.384;19.218;2023-03-01T20:59:39;4.40;94.80
40758;DHT22;26462;47.384;19.218;2023-03-01T21:02:09;4.30;95.00
40758;DHT22;26462;47.384;19.218;2023-03-01T21:04:39;4.40;95.30
40758;DHT22;26462;47.384;19.218;2023-03-01T21:07:06;4.30;95.20
40758;DHT22;26462;47.384;19.218;2023-03-01T21:09:34;4.30;95.10
40758;DHT22;26462;47.384;19.218;2023-03-01T21:12:03;4.30;95.10
40758;DHT22;26462;47.384;19.218;2023-03-01T21:14:31;4.20;95.20
40758;DHT22;26462;47.384;19.218;2023-03-01T21:17:14;4.20;95.30
40758;DHT22;26462;47.384;19.218;2023-03-01T21:19:43;4.20;95.50
40758;DHT22;26462;47.384;19.218;2023-03-01T21:22:14;4.20;95.60
40758;DHT22;26462;47.384;19.218;2023-03-01T21:24:42;4.10;95.60
40758;DHT22;26462;47.384;19.218;2023-03-01T21:27:12;4.00;95.60
40758;DHT22;26462;47.384;19.218;2023-03-01T21:29:43;4.00;95.80
40758;DHT22;26462;47.384;19.218;2023-03-01T21:32:12;4.00;95.80
40758;DHT22;26462;47.384;19.218;2023-03-01T21:34:41;3.30;95.70
40758;DHT22;26462;47.384;19.218;2023-03-01T21:37:09;4.00;96.00
40758;DHT22;26462;47.384;19.218;2023-03-01T21:39:37;4.00;96.20
40758;DHT22;26462;47.384;19.218;2023-03-01T21:42:06;4.00;96.20
40758;DHT22;26462;47.384;19.218;2023-03-01T21:44:34;4.00;96.30
40758;DHT22;26462;47.384;19.218;2023-03-01T21:47:04;3.90;96.40
40758;DHT22;26462;47.384;19.218;2023-03-01T21:49:38;3.90;96.50
40758;DHT22;26462;47.384;19.218;2023-03-01T21:52:05;3.90;96.50
40758;DHT22;26462;47.384;19.218;2023-03-01T21:54:32;3.90;96.60
40758;DHT22;26462;47.384;19.218;2023-03-01T21:57:00;3.90;96.60
40758;DHT22;26462;47.384;19.218;2023-03-01T21:59:28;3.90;96.70
40758;DHT22;26462;47.384;19.218;2023-03-01T22:01:56;3.80;96.70
40758;DHT22;26462;47.384;19.218;2023-03-01T22:04:23;3.80;96.80
40758;DHT22;26462;47.384;19.218;2023-03-01T22:06:56;3.80;96.80
40758;DHT22;26462;47.384;19.218;2023-03-01T22:09:24;3.80;96.80
40758;DHT22;26462;47.384;19.218;2023-03-01T22:11:53;3.80;96.90
40758;DHT22;26462;47.384;19.218;2023-03-01T22:14:29;3.70;96.90
40758;DHT22;26462;47.384;19.218;2023-03-01T22:16:58;3.70;96.90
40758;DHT22;26462;47.384;19.218;2023-03-01T22:19:27;3.70;96.50
40758;DHT22;26462;47.384;19.218;2023-03-01T22:21:56;3.60;96.10
40758;DHT22;26462;47.384;19.218;2023-03-01T22:24:25;3.70;95.40
40758;DHT22;26462;47.384;19.218;2023-03-01T22:26:57;3.70;94.70
40758;DHT22;26462;47.384;19.218;2023-03-01T22:29:27;3.60;94.30
40758;DHT22;26462;47.384;19.218;2023-03-01T22:31:57;3.60;93.70
40758;DHT22;26462;47.384;19.218;2023-03-01T22:34:26;3.60;93.40
40758;DHT22;26462;47.384;19.218;2023-03-01T22:36:56;3.60;92.70
40758;DHT22;26462;47.384;19.218;2023-03-01T22:39:24;3.60;92.20
40758;DHT22;26462;47.384;19.218;2023-03-01T22:41:54;3.60;91.70
40758;DHT22;26462;47.384;19.218;2023-03-01T22:44:22;3.60;91.30
40758;DHT22;26462;47.384;19.218;2023-03-01T22:46:51;3.50;90.80
40758;DHT22;26462;47.384;19.218;2023-03-01T22:49:19;3.50;90.60
40758;DHT22;26462;47.384;19.218;2023-03-01T22:51:49;3.50;90.20
40758;DHT22;26462;47.384;19.218;2023-03-01T22:54:19;3.50;90.10
40758;DHT22;26462;47.384;19.218;2023-03-01T22:56:49;3.40;90.00
40758;DHT22;26462;47.384;19.218;2023-03-01T22:59:21;3.50;89.40
40758;DHT22;26462;47.384;19.218;2023-03-01T23:01:52;3.40;88.80
40758;DHT22;26462;47.384;19.218;2023-03-01T23:04:21;3.40;88.90
40758;DHT22;26462;47.384;19.218;2023-03-01T23:06:49;3.40;88.50
40758;DHT22;26462;47.384;19.218;2023-03-01T23:09:27;3.40;87.70
40758;DHT22;26462;47.384;19.218;2023-03-01T23:11:57;3.40;88.40
40758;DHT22;26462;47.384;19.218;2023-03-01T23:14:27;3.30;88.90
40758;DHT22;26462;47.384;19.218;2023-03-01T23:16:56;3.30;89.80
40758;DHT22;26462;47.384;19.218;2023-03-01T23:19:27;3.30;89.80
40758;DHT22;26462;47.384;19.218;2023-03-01T23:21:59;3.20;89.60
40758;DHT22;26462;47.384;19.218;2023-03-01T23:24:26;3.20;90.10
40758;DHT22;26462;47.384;19.218;2023-03-01T23:26:59;3.20;90.90
40758;DHT22;26462;47.384;19.218;2023-03-01T23:29:27;3.10;91.00
40758;DHT22;26462;47.384;19.218;2023-03-01T23:31:55;3.10;90.90
40758;DHT22;26462;47.384;19.218;2023-03-01T23:34:24;3.00;90.80
40758;DHT22;26462;47.384;19.218;2023-03-01T23:36:53;3.00;90.90
40758;DHT22;26462;47.384;19.218;2023-03-01T23:39:22;3.00;90.80
40758;DHT22;26462;47.384;19.218;2023-03-01T23:41:53;3.00;90.40
40758;DHT22;26462;47.384;19.218;2023-03-01T23:44:22;2.90;89.90
40758;DHT22;26462;47.384;19.218;2023-03-01T23:46:49;2.90;90.10
40758;DHT22;26462;47.384;19.218;2023-03-01T23:49:20;2.90;88.90
40758;DHT22;26462;47.384;19.218;2023-03-01T23:52:12;2.90;88.00
40758;DHT22;26462;47.384;19.218;2023-03-01T23:54:40;2.90;88.60
40758;DHT22;26462;47.384;19.218;2023-03-01T23:57:09;2.90;86.50
40758;DHT22;26462;47.384;19.218;2023-03-01T23:59:36;2.90;86.10
